Time;durP1;ratioP1;P1;durP2;ratioP2;P2;SDS_P1;SDS_P2;PMS_P1;PMS_P2;Temp;Humidity;BMP_temperature;BMP_pressure;BME280_temperature;BME280_humidity;BME280_pressure;Samples;Min_cycle;Max_cycle;Signal;HPM_P1;HPM_P2
2021/12/01 00:01:12;;;;;;;15.20;8.70;;;;;;;-0.24;75.18;97469.71;105994;1319;139858;-60
2021/12/01 00:03:41;;;;;;;14.50;7.60;;;;;;;-0.22;75.21;97464.30;106010;1319;22475;-60
2021/12/01 00:06:10;;;;;;;14.10;8.50;;;;;;;-0.21;75.14;97460.63;105981;1323;139316;-60
2021/12/01 00:08:38;;;;;;;14.20;8.40;;;;;;;-0.19;75.15;97448.95;104897;1327;23078;-60
2021/12/01 00:11:06;;;;;;;13.80;8.60;;;;;;;-0.18;75.03;97458.39;105942;1319;23030;-59
2021/12/01 00:13:35;;;;;;;13.20;8.40;;;;;;;-0.14;74.94;97462.88;105993;1320;138502;-60
2021/12/01 00:16:07;;;;;;;12.90;8.30;;;;;;;-0.12;74.65;97468.38;106033;1319;22634;-59
2021/12/01 00:18:37;;;;;;;11.60;7.30;;;;;;;-0.09;74.61;97469.62;105972;1318;139392;-60
2021/12/01 00:21:05;;;;;;;11.80;7.40;;;;;;;-0.08;74.46;97472.91;106067;1318;23180;-60
2021/12/01 00:23:35;;;;;;;14.90;7.90;;;;;;;-0.07;74.65;97474.48;106131;1318;23203;-60
2021/12/01 00:26:03;;;;;;;12.50;7.80;;;;;;;-0.05;74.51;97471.78;105971;1319;138964;-60
2021/12/01 00:28:32;;;;;;;12.40;8.40;;;;;;;-0.04;74.61;97472.83;105519;1324;22400;-60
2021/12/01 00:31:00;;;;;;;11.20;7.30;;;;;;;-0.04;74.71;97468.70;106017;1319;138966;-60
2021/12/01 00:33:31;;;;;;;12.00;7.90;;;;;;;-0.04;74.77;97471.23;106079;1319;22642;-60
2021/12/01 00:35:59;;;;;;;11.70;7.60;;;;;;;-0.03;75.12;97470.21;106003;1319;138837;-67
2021/12/01 00:38:28;;;;;;;11.60;7.70;;;;;;;-0.03;75.08;97468.94;106139;1323;22454;-66
2021/12/01 00:41:07;;;;;;;13.00;8.10;;;;;;;-0.03;75.57;97462.02;106067;1318;22484;-66
2021/12/01 00:43:38;;;;;;;11.90;8.30;;;;;;;-0.03;75.87;97461.44;106025;1318;139707;-67
2021/12/01 00:46:11;;;;;;;12.90;8.00;;;;;;;-0.03;76.10;97454.05;106101;1319;22392;-67
2021/12/01 00:48:40;;;;;;;13.80;9.00;;;;;;;-0.02;76.29;97448.77;105853;1318;139355;-67
2021/12/01 00:51:08;;;;;;;10.70;7.50;;;;;;;-0.02;76.75;97441.70;106087;1318;22469;-66
2021/12/01 00:53:37;;;;;;;13.90;8.70;;;;;;;-0.03;76.80;97438.25;106094;1318;22530;-66
2021/12/01 00:56:05;;;;;;;15.10;8.60;;;;;;;-0.04;77.03;97433.58;105988;1317;139567;-66
2021/12/01 00:58:33;;;;;;;12.30;9.00;;;;;;;-0.06;77.36;97433.29;106153;1319;22492;-66
2021/12/01 01:01:03;;;;;;;12.70;8.30;;;;;;;-0.05;77.69;97428.80;106029;1319;139027;-66
2021/12/01 01:03:32;;;;;;;12.10;8.60;;;;;;;-0.05;77.68;97428.27;106161;1319;22527;-66
2021/12/01 01:06:00;;;;;;;13.20;8.50;;;;;;;-0.04;77.72;97426.09;106018;1319;139905;-60
2021/12/01 01:08:29;;;;;;;13.50;8.20;;;;;;;-0.04;78.01;97425.39;106165;1319;22455;-60
2021/12/01 01:16:25;;;;;;;12.40;8.60;;;;;;;-0.06;78.32;97422.13;106157;1319;23314;-60
2021/12/01 01:18:56;;;;;;;13.10;9.50;;;;;;;-0.09;78.22;97420.17;106069;1319;140027;-59
2021/12/01 01:21:27;;;;;;;12.80;9.10;;;;;;;-0.12;78.57;97422.39;106129;1316;22552;-60
2021/12/01 01:23:55;;;;;;;13.10;8.80;;;;;;;-0.14;78.49;97415.73;106080;1320;140921;-60
2021/12/01 01:26:24;;;;;;;13.10;8.60;;;;;;;-0.15;78.84;97410.86;106070;1319;22478;-60
2021/12/01 01:28:52;;;;;;;16.20;9.40;;;;;;;-0.17;78.78;97407.03;106133;1319;22481;-60
2021/12/01 01:31:21;;;;;;;14.10;9.10;;;;;;;-0.23;79.03;97402.68;106044;1319;139424;-59
2021/12/01 01:33:50;;;;;;;14.60;9.10;;;;;;;-0.24;78.92;97399.12;106151;1322;22390;-59
2021/12/01 01:36:18;;;;;;;15.70;10.50;;;;;;;-0.27;79.46;97396.23;106048;1318;139705;-59
2021/12/01 01:38:46;;;;;;;14.20;9.40;;;;;;;-0.30;79.62;97389.83;106175;1323;23173;-59
2021/12/01 01:41:15;;;;;;;13.20;9.00;;;;;;;-0.33;79.61;97388.55;102579;1319;24332;-61
2021/12/01 01:43:44;;;;;;;15.80;9.20;;;;;;;-0.35;79.69;97384.39;105874;1318;139065;-59
2021/12/01 01:46:13;;;;;;;14.70;9.30;;;;;;;-0.39;79.91;97375.70;106202;1319;22498;-60
2021/12/01 01:48:50;;;;;;;14.50;9.40;;;;;;;-0.43;79.90;97378.40;105611;1317;138556;-59
2021/12/01 01:51:23;;;;;;;18.70;10.40;;;;;;;-0.46;80.58;97368.19;106070;1318;22498;-60
2021/12/01 01:53:54;;;;;;;22.80;12.00;;;;;;;-0.47;80.46;97369.15;106028;1319;138801;-59
2021/12/01 01:56:22;;;;;;;26.70;12.60;;;;;;;-0.48;80.77;97369.71;105589;1317;22673;-59
2021/12/01 01:58:50;;;;;;;19.00;11.10;;;;;;;-0.48;81.18;97366.54;106172;1320;22406;-59
2021/12/01 02:04:07;;;;;;;13.30;9.10;;;;;;;-0.54;81.21;97354.65;106132;1318;22692;-59
2021/12/01 02:06:36;;;;;;;13.30;9.00;;;;;;;-0.56;81.32;97355.96;106030;1319;138448;-59
2021/12/01 02:09:05;;;;;;;12.80;8.10;;;;;;;-0.58;81.55;97349.52;106135;1319;22539;-59
2021/12/01 02:11:33;;;;;;;16.50;9.50;;;;;;;-0.60;81.68;97350.98;106186;1319;22656;-60
2021/12/01 02:14:01;;;;;;;14.70;9.80;;;;;;;-0.60;81.70;97348.09;106067;1319;138524;-60
2021/12/01 02:16:30;;;;;;;11.60;8.30;;;;;;;-0.61;81.88;97345.36;106142;1318;22527;-60
2021/12/01 02:18:59;;;;;;;16.00;8.80;;;;;;;-0.62;82.19;97343.04;106052;1318;138964;-60
2021/12/01 02:21:29;;;;;;;13.70;8.20;;;;;;;-0.64;82.15;97335.46;106132;1319;23438;-59
2021/12/01 02:23:59;;;;;;;15.60;9.10;;;;;;;-0.64;82.25;97331.48;106026;1316;140876;-60
2021/12/01 02:26:28;;;;;;;13.40;9.00;;;;;;;-0.68;82.23;97333.08;106166;1319;22416;-60
2021/12/01 02:28:58;;;;;;;15.10;8.50;;;;;;;-0.69;82.62;97332.89;106129;1318;22561;-60
2021/12/01 02:31:30;;;;;;;14.40;9.30;;;;;;;-0.69;82.48;97333.67;106013;1318;139007;-60
2021/12/01 02:33:58;;;;;;;13.20;8.50;;;;;;;-0.70;82.66;97334.35;106131;1318;22439;-60
2021/12/01 02:36:26;;;;;;;14.60;9.00;;;;;;;-0.72;82.55;97333.75;106084;1319;138284;-60
2021/12/01 02:38:54;;;;;;;13.00;9.00;;;;;;;-0.74;82.61;97329.72;106124;1319;22437;-60
2021/12/01 02:41:27;;;;;;;14.00;9.10;;;;;;;-0.75;82.79;97331.95;106141;1319;24040;-60
2021/12/01 02:43:57;;;;;;;15.20;9.10;;;;;;;-0.73;83.03;97335.99;105976;1316;138016;-60
2021/12/01 02:46:26;;;;;;;12.10;7.40;;;;;;;-0.71;82.89;97339.76;106097;1318;22498;-60
2021/12/01 02:48:56;;;;;;;13.10;8.10;;;;;;;-0.68;83.20;97327.50;106015;1318;138251;-60
2021/12/01 02:51:30;;;;;;;13.80;7.10;;;;;;;-0.68;83.01;97324.52;105128;1323;22501;-60
2021/12/01 02:53:59;;;;;;;11.20;7.90;;;;;;;-0.67;82.94;97324.38;105923;1318;138739;-60
2021/12/01 02:56:30;;;;;;;13.90;7.80;;;;;;;-0.65;83.06;97331.79;106163;1318;22513;-60
2021/12/01 02:59:00;;;;;;;11.20;7.90;;;;;;;-0.62;83.15;97330.58;106173;1319;22288;-60
2021/12/01 03:01:28;;;;;;;13.90;8.60;;;;;;;-0.59;83.05;97329.73;106035;1319;138653;-60
2021/12/01 03:03:58;;;;;;;12.80;8.20;;;;;;;-0.58;83.03;97324.38;106098;1318;23419;-60
2021/12/01 03:06:27;;;;;;;12.60;8.10;;;;;;;-0.56;82.90;97328.47;106060;1319;139070;-60
2021/12/01 03:08:56;;;;;;;12.30;7.50;;;;;;;-0.53;83.33;97328.67;105921;1319;22440;-60
2021/12/01 03:11:24;;;;;;;14.90;8.50;;;;;;;-0.50;83.46;97329.54;106156;1320;22473;-60
2021/12/01 03:13:54;;;;;;;15.60;8.80;;;;;;;-0.50;83.18;97327.20;106045;1320;139818;-60
2021/12/01 03:16:22;;;;;;;12.00;8.10;;;;;;;-0.48;83.23;97328.15;104187;1319;23939;-62
2021/12/01 03:18:51;;;;;;;13.50;8.70;;;;;;;-0.46;83.00;97324.70;102073;1319;138931;-61
2021/12/01 03:21:20;;;;;;;13.70;8.80;;;;;;;-0.45;83.20;97325.52;106098;1316;23166;-60
2021/12/01 03:23:48;;;;;;;13.60;8.40;;;;;;;-0.44;83.34;97326.61;106033;1319;139025;-60
2021/12/01 03:26:17;;;;;;;14.00;8.10;;;;;;;-0.43;82.98;97323.23;106155;1318;22455;-60
2021/12/01 03:28:45;;;;;;;15.00;7.50;;;;;;;-0.43;83.16;97321.16;106147;1319;22411;-60
2021/12/01 03:31:13;;;;;;;12.80;7.30;;;;;;;-0.44;83.22;97317.30;106087;1319;138650;-60
2021/12/01 03:33:43;;;;;;;12.30;8.70;;;;;;;-0.44;83.14;97319.71;106168;1318;23544;-60
2021/12/01 03:36:11;;;;;;;12.20;8.00;;;;;;;-0.45;83.44;97323.17;106063;1318;139084;-60
2021/12/01 03:38:39;;;;;;;13.10;8.80;;;;;;;-0.44;83.31;97322.77;106191;1318;22448;-60
2021/12/01 03:41:08;;;;;;;12.70;8.10;;;;;;;-0.43;83.59;97322.06;106124;1319;22472;-60
2021/12/01 03:43:36;;;;;;;15.10;8.40;;;;;;;-0.41;83.74;97326.38;106036;1319;138978;-60
2021/12/01 03:46:10;;;;;;;20.80;10.80;;;;;;;-0.40;83.72;97323.45;106194;1318;22435;-60
2021/12/01 03:48:39;;;;;;;22.60;10.80;;;;;;;-0.38;83.65;97324.19;106046;1319;139673;-60
2021/12/01 03:51:07;;;;;;;14.70;8.20;;;;;;;-0.36;84.03;97326.46;106136;1319;22475;-60
2021/12/01 03:53:37;;;;;;;17.60;11.60;;;;;;;-0.33;83.77;97321.96;106108;1318;23220;-60
2021/12/01 03:56:05;;;;;;;15.20;9.50;;;;;;;-0.32;83.80;97320.66;106043;1319;139669;-60
2021/12/01 03:58:34;;;;;;;15.50;9.60;;;;;;;-0.30;84.10;97322.92;106167;1319;22480;-60
2021/12/01 04:01:02;;;;;;;16.60;9.80;;;;;;;-0.30;83.80;97318.71;106009;1320;138200;-60
2021/12/01 04:03:30;;;;;;;18.60;9.50;;;;;;;-0.29;83.94;97321.83;106180;1318;22463;-60
2021/12/01 04:05:59;;;;;;;18.60;10.10;;;;;;;-0.30;84.05;97322.25;106014;1319;138294;-60
2021/12/01 04:08:27;;;;;;;26.10;12.10;;;;;;;-0.29;83.93;97321.14;106209;1319;22452;-60
2021/12/01 04:10:55;;;;;;;20.70;10.50;;;;;;;-0.27;84.00;97316.16;106180;1318;23079;-60
2021/12/01 04:13:23;;;;;;;24.70;10.50;;;;;;;-0.27;83.99;97315.41;106052;1316;139268;-60
2021/12/01 04:15:51;;;;;;;23.10;11.00;;;;;;;-0.25;84.16;97311.92;106156;1319;22606;-60
2021/12/01 04:18:20;;;;;;;17.20;9.80;;;;;;;-0.24;84.43;97310.45;106065;1319;139822;-60
2021/12/01 04:20:48;;;;;;;17.50;8.50;;;;;;;-0.23;84.18;97312.93;106151;1319;22455;-60
2021/12/01 04:23:18;;;;;;;21.30;10.80;;;;;;;-0.21;84.39;97313.56;106192;1318;23554;-60
2021/12/01 04:25:46;;;;;;;18.70;10.50;;;;;;;-0.21;84.24;97310.77;106034;1319;138620;-60
2021/12/01 04:28:14;;;;;;;15.50;8.60;;;;;;;-0.20;84.48;97311.38;106129;1318;22412;-60
2021/12/01 04:30:43;;;;;;;13.30;8.50;;;;;;;-0.17;84.61;97308.39;106043;1319;138138;-60
2021/12/01 04:33:14;;;;;;;13.10;8.00;;;;;;;-0.14;84.75;97304.29;106177;1319;22450;-60
2021/12/01 04:35:44;;;;;;;12.30;8.00;;;;;;;-0.13;84.82;97300.39;106142;1318;23601;-60
2021/12/01 04:38:12;;;;;;;14.70;8.70;;;;;;;-0.12;84.92;97294.37;106047;1319;138998;-60
2021/12/01 04:40:41;;;;;;;12.70;8.30;;;;;;;-0.12;84.98;97294.91;106119;1322;22432;-59
2021/12/01 04:43:10;;;;;;;13.70;8.30;;;;;;;-0.12;85.03;97299.23;106065;1318;138560;-60
2021/12/01 04:45:42;;;;;;;16.00;9.40;;;;;;;-0.13;84.80;97304.52;106151;1319;22470;-60
2021/12/01 04:48:11;;;;;;;13.90;8.80;;;;;;;-0.13;84.96;97308.73;106071;1318;139602;-60
2021/12/01 04:50:39;;;;;;;14.20;8.70;;;;;;;-0.13;84.80;97305.22;106191;1318;22440;-60
2021/12/01 04:53:07;;;;;;;14.00;9.10;;;;;;;-0.13;85.03;97306.62;106153;1319;22448;-60
2021/12/01 04:55:37;;;;;;;11.70;7.80;;;;;;;-0.10;85.17;97311.79;106054;1319;138404;-66
2021/12/01 04:58:05;;;;;;;13.00;8.90;;;;;;;-0.09;85.03;97314.77;105948;1319;22744;-66
2021/12/01 05:00:36;;;;;;;13.20;8.50;;;;;;;-0.06;85.27;97317.38;105687;1319;139601;-66
2021/12/01 05:03:05;;;;;;;21.60;9.70;;;;;;;-0.05;85.18;97316.05;106170;1319;22415;-65
2021/12/01 05:05:50;;;;;;;12.10;8.10;;;;;;;-0.05;85.21;97314.14;106054;1319;138367;-63
2021/12/01 05:08:20;;;;;;;12.50;8.70;;;;;;;-0.02;85.26;97314.08;106151;1319;22381;-65
2021/12/01 05:10:48;;;;;;;14.00;8.50;;;;;;;-0.01;85.31;97313.52;106198;1318;22440;-65
2021/12/01 05:15:45;;;;;;;11.30;7.90;;;;;;;0.03;85.61;97310.55;99450;1351;544813;-65
2021/12/01 05:18:14;;;;;;;11.70;8.20;;;;;;;0.04;85.48;97312.38;101311;1325;137594;-65
2021/12/01 05:20:42;;;;;;;11.90;8.20;;;;;;;0.05;85.48;97309.34;105365;1326;22497;-66
2021/12/01 05:23:15;;;;;;;13.20;9.20;;;;;;;0.06;85.27;97314.73;105290;1328;23432;-66
2021/12/01 05:25:45;;;;;;;12.20;8.30;;;;;;;0.06;85.48;97316.48;105136;1326;137378;-60
2021/12/01 05:28:13;;;;;;;12.70;8.30;;;;;;;0.08;85.40;97321.28;105133;1328;142157;-60
2021/12/01 05:30:41;;;;;;;10.40;8.00;;;;;;;0.08;85.46;97322.90;105403;1324;138968;-60
2021/12/01 05:33:11;;;;;;;12.20;8.80;;;;;;;0.09;85.40;97328.73;105366;1325;22561;-60
2021/12/01 05:35:43;;;;;;;15.00;8.70;;;;;;;0.11;85.54;97330.39;105388;1329;23335;-60
2021/12/01 05:38:12;;;;;;;17.20;9.90;;;;;;;0.14;85.39;97339.74;105378;1324;138140;-60
2021/12/01 05:40:41;;;;;;;17.90;10.10;;;;;;;0.16;85.19;97343.62;105492;1325;22481;-60
2021/12/01 05:43:09;;;;;;;16.40;9.70;;;;;;;0.17;85.16;97344.29;104849;1325;140294;-60
2021/12/01 05:45:38;;;;;;;18.70;11.50;;;;;;;0.20;85.33;97347.60;105422;1325;23227;-60
2021/12/01 05:48:06;;;;;;;14.90;9.60;;;;;;;0.21;85.57;97348.11;105278;1325;138146;-60
2021/12/01 05:50:34;;;;;;;10.40;7.70;;;;;;;0.24;85.49;97352.05;105457;1325;22453;-60
2021/12/01 05:53:03;;;;;;;10.60;7.40;;;;;;;0.27;85.32;97351.36;105422;1325;23357;-60
2021/12/01 05:55:31;;;;;;;10.50;7.40;;;;;;;0.29;85.33;97355.92;105327;1324;137796;-60
2021/12/01 05:57:59;;;;;;;8.90;7.50;;;;;;;0.31;85.46;97362.80;105409;1324;22425;-60
2021/12/01 06:00:27;;;;;;;13.90;8.00;;;;;;;0.32;85.47;97368.66;105077;1325;137955;-60
2021/12/01 06:02:56;;;;;;;10.90;8.30;;;;;;;0.35;85.14;97374.66;105413;1325;22566;-60
2021/12/01 06:05:24;;;;;;;11.20;7.70;;;;;;;0.38;85.52;97381.07;105448;1325;22441;-60
2021/12/01 06:07:52;;;;;;;13.90;9.40;;;;;;;0.41;85.21;97378.65;105309;1325;137941;-60
2021/12/01 06:10:22;;;;;;;11.30;7.50;;;;;;;0.44;85.25;97384.69;105423;1326;24305;-60
2021/12/01 06:12:52;;;;;;;13.10;8.20;;;;;;;0.47;85.31;97386.55;105285;1326;139272;-60
2021/12/01 06:15:20;;;;;;;12.10;7.30;;;;;;;0.49;85.15;97388.89;105412;1325;22426;-60
2021/12/01 06:17:48;;;;;;;16.50;9.00;;;;;;;0.50;85.40;97394.80;105240;1328;22488;-60
2021/12/01 06:20:18;;;;;;;11.00;8.10;;;;;;;0.51;85.15;97403.02;105303;1325;137336;-60
2021/12/01 06:22:47;;;;;;;14.80;9.50;;;;;;;0.53;85.24;97409.54;105387;1325;22437;-60
2021/12/01 06:25:15;;;;;;;13.50;8.80;;;;;;;0.55;85.11;97413.33;105211;1328;137536;-60
2021/12/01 06:27:43;;;;;;;15.30;8.90;;;;;;;0.56;85.21;97412.48;105380;1324;23206;-60
2021/12/01 06:30:12;;;;;;;15.40;8.60;;;;;;;0.56;85.19;97414.52;105339;1324;137922;-60
2021/12/01 06:32:41;;;;;;;13.40;8.90;;;;;;;0.58;85.20;97413.73;105425;1325;22604;-60
2021/12/01 06:35:09;;;;;;;15.60;8.80;;;;;;;0.59;85.05;97414.44;106076;1318;22564;-60
2021/12/01 06:37:38;;;;;;;16.60;9.80;;;;;;;0.61;85.15;97414.04;105385;1316;137938;-60
2021/12/01 06:40:07;;;;;;;21.20;12.10;;;;;;;0.63;85.07;97411.33;106082;1318;22466;-60
2021/12/01 06:42:35;;;;;;;15.00;10.80;;;;;;;0.64;85.22;97416.86;106002;1316;139330;-60
2021/12/01 06:45:04;;;;;;;17.20;10.60;;;;;;;0.63;85.16;97420.30;106169;1318;23323;-60
2021/12/01 06:47:32;;;;;;;14.80;10.30;;;;;;;0.65;85.20;97422.77;106200;1316;23567;-59
2021/12/01 06:50:03;;;;;;;17.50;11.70;;;;;;;0.65;85.02;97424.66;105957;1316;137554;-60
2021/12/01 06:52:31;;;;;;;16.70;10.80;;;;;;;0.66;84.95;97427.84;105951;1318;22505;-61
2021/12/01 06:55:00;;;;;;;16.40;11.10;;;;;;;0.68;84.87;97431.89;105931;1316;137775;-60
2021/12/01 06:57:28;;;;;;;17.40;11.10;;;;;;;0.70;85.10;97436.87;106099;1316;22435;-60
2021/12/01 06:59:57;;;;;;;16.30;11.00;;;;;;;0.73;85.02;97446.80;105992;1318;138875;-60
2021/12/01 07:02:25;;;;;;;16.10;11.40;;;;;;;0.73;84.84;97451.83;105969;1316;22429;-60
2021/12/01 07:04:54;;;;;;;15.20;10.50;;;;;;;0.74;85.00;97454.95;106041;1316;22240;-60
2021/12/01 07:07:22;;;;;;;14.80;9.70;;;;;;;0.77;84.83;97461.55;102119;1316;138323;-59
2021/12/01 07:09:51;;;;;;;17.80;11.60;;;;;;;0.78;84.85;97462.16;105963;1318;23674;-60
2021/12/01 07:12:19;;;;;;;16.00;10.90;;;;;;;0.81;84.97;97467.61;105967;1318;138022;-60
2021/12/01 07:14:47;;;;;;;15.80;11.00;;;;;;;0.83;84.79;97472.58;106126;1317;22599;-60
2021/12/01 07:17:16;;;;;;;16.70;10.10;;;;;;;0.84;84.79;97481.23;105676;1316;23410;-59
2021/12/01 07:19:44;;;;;;;16.50;10.70;;;;;;;0.87;84.82;97481.69;106017;1317;138374;-60
2021/12/01 07:22:12;;;;;;;14.90;10.70;;;;;;;0.90;85.05;97481.45;106086;1318;23346;-60
2021/12/01 07:24:40;;;;;;;17.20;10.00;;;;;;;0.92;84.88;97482.67;105988;1316;138162;-60
2021/12/01 07:27:14;;;;;;;14.90;10.60;;;;;;;0.94;84.68;97487.42;106132;1317;22594;-60
2021/12/01 07:29:43;;;;;;;14.90;9.70;;;;;;;0.94;84.54;97490.33;106123;1316;22562;-60
2021/12/01 07:32:11;;;;;;;12.30;8.20;;;;;;;0.96;84.81;97492.02;105988;1319;138640;-59
2021/12/01 07:34:42;;;;;;;14.30;9.10;;;;;;;0.98;84.34;97493.13;106145;1316;22397;-60
2021/12/01 07:37:15;;;;;;;15.80;8.90;;;;;;;1.01;84.48;97496.75;105973;1317;138893;-60
2021/12/01 07:39:44;;;;;;;14.00;8.50;;;;;;;1.02;84.26;97491.88;106096;1316;22584;-61
2021/12/01 07:42:13;;;;;;;17.70;10.10;;;;;;;1.04;84.18;97496.52;105939;1316;137974;-61
2021/12/01 07:44:42;;;;;;;16.30;9.60;;;;;;;1.05;84.24;97497.61;106091;1316;22462;-61
2021/12/01 07:47:11;;;;;;;17.10;9.80;;;;;;;1.07;84.04;97500.48;106084;1321;22567;-60
2021/12/01 07:49:41;;;;;;;15.40;9.10;;;;;;;1.09;84.00;97505.77;105914;1318;138795;-60
2021/12/01 07:52:09;;;;;;;13.50;8.60;;;;;;;1.10;83.85;97504.98;106079;1316;22538;-60
2021/12/01 07:54:39;;;;;;;13.90;8.90;;;;;;;1.12;83.93;97505.34;105708;1316;137772;-60
2021/12/01 07:57:07;;;;;;;11.50;8.10;;;;;;;1.14;83.69;97507.19;106033;1316;22574;-60
2021/12/01 07:59:36;;;;;;;16.90;9.40;;;;;;;1.15;83.82;97511.38;106149;1321;22517;-60
2021/12/01 08:02:04;;;;;;;13.70;9.20;;;;;;;1.16;83.53;97513.75;105918;1319;137642;-60
2021/12/01 08:04:33;;;;;;;17.30;10.70;;;;;;;1.16;83.51;97520.19;105630;1320;22534;-60
2021/12/01 08:07:02;;;;;;;18.30;10.80;;;;;;;1.17;83.69;97527.22;102812;1316;138799;-62
2021/12/01 08:09:30;;;;;;;21.60;12.40;;;;;;;1.18;83.50;97533.94;101899;1317;26078;-62
2021/12/01 08:11:59;;;;;;;19.70;12.00;;;;;;;1.17;83.43;97534.24;101745;1317;139560;-62
2021/12/01 08:14:27;;;;;;;20.80;11.50;;;;;;;1.16;83.40;97537.36;101970;1317;24497;-61
2021/12/01 08:16:55;;;;;;;15.80;10.20;;;;;;;1.17;83.51;97542.34;102011;1317;25436;-62
2021/12/01 08:19:24;;;;;;;14.80;9.50;;;;;;;1.18;83.51;97544.29;101827;1317;138472;-62
2021/12/01 08:21:52;;;;;;;16.10;9.40;;;;;;;1.19;83.45;97541.67;101938;1316;22664;-62
2021/12/01 08:24:20;;;;;;;16.60;10.40;;;;;;;1.19;83.49;97548.71;101878;1321;139421;-61
2021/12/01 08:26:49;;;;;;;17.10;11.20;;;;;;;1.20;83.48;97549.96;101999;1316;22622;-62
2021/12/01 08:29:17;;;;;;;15.70;10.40;;;;;;;1.20;83.57;97555.37;105992;1316;23604;-62
2021/12/01 08:31:45;;;;;;;20.20;10.90;;;;;;;1.19;83.43;97559.81;106025;1316;138321;-62
2021/12/01 08:34:16;;;;;;;18.10;12.00;;;;;;;1.18;83.43;97566.02;106100;1316;22542;-62
2021/12/01 08:36:46;;;;;;;25.20;12.80;;;;;;;1.16;83.45;97567.77;103408;1321;139699;-63
2021/12/01 08:39:15;;;;;;;20.60;11.80;;;;;;;1.13;83.54;97573.84;101921;1321;22926;-61
2021/12/01 08:41:43;;;;;;;16.00;10.60;;;;;;;1.14;83.76;97577.55;101946;1316;24153;-62
2021/12/01 08:44:13;;;;;;;17.10;10.10;;;;;;;1.15;83.89;97575.54;101901;1316;138715;-64
2021/12/01 08:46:41;;;;;;;19.10;10.50;;;;;;;1.16;83.74;97574.88;101902;1319;26353;-61
2021/12/01 08:49:09;;;;;;;19.50;11.60;;;;;;;1.18;83.54;97581.09;101884;1316;137987;-61
2021/12/01 08:51:39;;;;;;;18.00;11.10;;;;;;;1.19;83.71;97583.88;101949;1321;24450;-64
2021/12/01 08:54:13;;;;;;;14.90;10.30;;;;;;;1.18;83.91;97584.48;101720;1319;138037;-61
2021/12/01 08:56:41;;;;;;;15.10;10.70;;;;;;;1.17;83.73;97580.75;101998;1322;22597;-61
2021/12/01 08:59:10;;;;;;;17.90;11.70;;;;;;;1.13;83.99;97574.15;106029;1318;23399;-62
2021/12/01 09:01:40;;;;;;;16.90;11.90;;;;;;;1.12;83.74;97580.96;106012;1317;137772;-62
2021/12/01 09:04:08;;;;;;;19.70;12.40;;;;;;;1.12;83.91;97586.96;106142;1316;22580;-62
2021/12/01 09:06:38;;;;;;;14.70;9.50;;;;;;;1.14;83.94;97592.58;106042;1321;139686;-62
2021/12/01 09:09:06;;;;;;;14.20;10.70;;;;;;;1.16;84.05;97596.95;106115;1320;23267;-62
2021/12/01 09:11:34;;;;;;;18.90;11.10;;;;;;;1.20;83.95;97599.78;106160;1318;22459;-62
2021/12/01 09:14:03;;;;;;;17.40;10.70;;;;;;;1.23;83.72;97606.06;105960;1316;138808;-62
2021/12/01 09:16:42;;;;;;;15.00;10.50;;;;;;;1.26;83.80;97612.39;106128;1320;22482;-62
2021/12/01 09:19:10;;;;;;;19.80;11.90;;;;;;;1.27;83.76;97620.15;106029;1316;137702;-62
2021/12/01 09:21:38;;;;;;;19.30;11.60;;;;;;;1.29;83.71;97626.39;105971;1316;22481;-62
2021/12/01 09:24:07;;;;;;;15.20;11.20;;;;;;;1.31;83.53;97626.23;106037;1316;138364;-62
2021/12/01 09:26:35;;;;;;;16.50;10.80;;;;;;;1.31;83.28;97625.65;106083;1316;22488;-62
2021/12/01 09:29:03;;;;;;;13.90;9.40;;;;;;;1.33;83.41;97631.42;106087;1316;23047;-62
2021/12/01 09:31:32;;;;;;;12.60;9.50;;;;;;;1.30;83.01;97630.22;106031;1317;138786;-62
2021/12/01 09:34:00;;;;;;;13.50;9.70;;;;;;;1.26;83.07;97630.38;106089;1316;22483;-62
2021/12/01 09:36:29;;;;;;;16.50;11.10;;;;;;;1.25;83.16;97633.25;103809;1320;139631;-61
2021/12/01 09:38:58;;;;;;;16.30;11.00;;;;;;;1.26;83.18;97644.65;101995;1321;23023;-61
2021/12/01 09:41:26;;;;;;;13.70;9.90;;;;;;;1.27;83.05;97645.30;102037;1316;25174;-62
2021/12/01 09:43:54;;;;;;;15.40;10.40;;;;;;;1.26;83.10;97648.71;101852;1316;139676;-61
2021/12/01 09:46:22;;;;;;;13.60;9.70;;;;;;;1.26;83.03;97654.73;101967;1320;24337;-61
2021/12/01 09:48:51;;;;;;;13.20;9.20;;;;;;;1.25;82.98;97658.89;101874;1316;137877;-61
2021/12/01 09:51:20;;;;;;;15.90;9.30;;;;;;;1.21;82.80;97662.94;106077;1316;23286;-61
2021/12/01 09:53:49;;;;;;;14.60;9.50;;;;;;;1.18;82.69;97669.23;106109;1316;22609;-62
2021/12/01 09:56:18;;;;;;;11.90;8.40;;;;;;;1.16;82.70;97676.44;106044;1316;138468;-62
2021/12/01 09:58:47;;;;;;;13.60;9.70;;;;;;;1.14;82.72;97681.03;106095;1316;23530;-62
2021/12/01 10:01:17;;;;;;;15.30;9.60;;;;;;;1.14;82.58;97686.92;105620;1316;138756;-62
2021/12/01 10:03:45;;;;;;;13.20;9.90;;;;;;;1.15;82.84;97692.68;106106;1316;23201;-62
2021/12/01 10:06:16;;;;;;;19.10;12.30;;;;;;;1.16;82.84;97699.77;103848;1316;138226;-61
2021/12/01 10:08:45;;;;;;;15.00;11.40;;;;;;;1.17;82.90;97707.02;106095;1319;23456;-61
2021/12/01 10:11:32;;;;;;;17.20;11.20;;;;;;;1.17;82.91;97708.63;106149;1318;22630;-62
2021/12/01 10:14:19;;;;;;;15.40;10.10;;;;;;;1.15;82.49;97712.80;105941;1316;138122;-62
2021/12/01 10:16:51;;;;;;;19.30;12.80;;;;;;;1.13;82.84;97719.75;106038;1316;22503;-62
2021/12/01 10:19:20;;;;;;;23.80;14.10;;;;;;;1.13;82.84;97726.88;106018;1317;139477;-62
2021/12/01 10:21:49;;;;;;;28.20;16.00;;;;;;;1.13;82.68;97729.34;105552;1321;22495;-61
2021/12/01 10:24:21;;;;;;;24.20;16.40;;;;;;;1.11;82.72;97734.40;106039;1321;138443;-62
2021/12/01 10:26:54;;;;;;;17.10;11.60;;;;;;;1.09;82.71;97734.24;106105;1316;22547;-62
2021/12/01 10:29:29;;;;;;;18.00;11.90;;;;;;;1.06;82.75;97738.38;106045;1316;22469;-62
2021/12/01 10:32:07;;;;;;;22.70;12.60;;;;;;;1.02;82.69;97739.48;106037;1316;138771;-62
2021/12/01 10:34:36;;;;;;;25.60;14.10;;;;;;;0.99;82.72;97736.44;106088;1318;22393;-61
2021/12/01 10:37:11;;;;;;;12.40;8.60;;;;;;;0.97;82.76;97736.24;105827;1319;138176;-62
2021/12/01 10:39:44;;;;;;;18.30;10.90;;;;;;;0.95;82.55;97743.60;106135;1318;23325;-62
2021/12/01 10:42:15;;;;;;;14.20;9.80;;;;;;;0.95;83.10;97749.13;105935;1319;140415;-62
2021/12/01 10:45:02;;;;;;;14.10;10.00;;;;;;;0.95;83.66;97750.89;106098;1320;22535;-61
2021/12/01 10:47:40;;;;;;;15.40;11.10;;;;;;;0.93;83.28;97755.14;106132;1317;22483;-62
2021/12/01 10:50:14;;;;;;;16.40;11.50;;;;;;;0.94;83.24;97753.91;106006;1316;138970;-62
2021/12/01 10:52:51;;;;;;;16.10;11.10;;;;;;;0.93;83.18;97755.62;106139;1316;22515;-62
2021/12/01 10:55:23;;;;;;;14.00;11.20;;;;;;;0.93;82.99;97759.05;106035;1317;138019;-62
2021/12/01 10:58:05;;;;;;;18.30;11.80;;;;;;;0.91;82.96;97759.27;106141;1316;22549;-62
2021/12/01 11:00:38;;;;;;;17.50;10.80;;;;;;;0.92;83.06;97763.86;105981;1318;139998;-62
2021/12/01 11:03:15;;;;;;;15.00;11.10;;;;;;;0.91;82.85;97772.25;106009;1319;22521;-62
2021/12/01 11:05:48;;;;;;;16.00;10.50;;;;;;;0.90;82.69;97775.55;106134;1316;22444;-62
2021/12/01 11:08:22;;;;;;;20.40;12.00;;;;;;;0.89;83.03;97778.54;106043;1318;139336;-62
2021/12/01 11:10:53;;;;;;;14.60;10.60;;;;;;;0.90;83.01;97782.79;106090;1315;22434;-62
2021/12/01 11:13:22;;;;;;;14.00;10.80;;;;;;;0.91;83.19;97792.21;106002;1316;137985;-62
2021/12/01 11:15:54;;;;;;;13.40;9.60;;;;;;;0.93;83.43;97792.51;106131;1316;22367;-61
2021/12/01 11:18:47;;;;;;;14.90;10.20;;;;;;;0.97;83.52;97793.30;105878;1316;138025;-61
2021/12/01 11:21:23;;;;;;;16.70;12.30;;;;;;;1.01;83.62;97795.52;106120;1316;22584;-61
2021/12/01 11:23:53;;;;;;;14.90;11.40;;;;;;;1.01;83.44;97793.75;106106;1316;23159;-61
2021/12/01 11:26:23;;;;;;;16.60;12.20;;;;;;;1.00;83.46;97795.13;105978;1318;137932;-62
2021/12/01 11:28:57;;;;;;;17.60;11.60;;;;;;;0.98;83.38;97791.98;105780;1319;22649;-61
2021/12/01 11:31:37;;;;;;;17.30;11.80;;;;;;;0.97;83.30;97795.97;106045;1316;139072;-62
2021/12/01 11:34:19;;;;;;;14.70;11.70;;;;;;;0.96;83.27;97799.28;106099;1320;23204;-61
2021/12/01 11:36:49;;;;;;;22.10;15.10;;;;;;;0.94;83.04;97805.20;106054;1316;138910;-61